createdAt,value
2022-10-19T00:01:55.552Z,15.02
2022-10-19T00:04:29.026Z,15.00
2022-10-19T00:07:00.862Z,15.00
2022-10-19T00:09:32.756Z,15.00
2022-10-19T00:12:04.929Z,14.99
2022-10-19T00:14:36.674Z,14.99
2022-10-19T00:17:09.201Z,14.99
2022-10-19T00:19:41.059Z,14.99
2022-10-19T00:22:14.065Z,15.03
2022-10-19T00:24:46.383Z,15.08
2022-10-19T00:27:18.558Z,15.05
2022-10-19T00:29:50.400Z,15.06
2022-10-19T00:32:22.404Z,15.05
2022-10-19T00:34:55.129Z,15.04
2022-10-19T00:37:27.313Z,15.04
2022-10-19T00:39:59.185Z,15.04
2022-10-19T00:42:31.320Z,15.07
2022-10-19T00:45:09.549Z,15.10
2022-10-19T00:47:42.782Z,15.14
2022-10-19T00:50:15.149Z,15.18
2022-10-19T00:52:46.990Z,15.20
2022-10-19T00:55:18.908Z,15.22
2022-10-19T01:00:27.931Z,15.19
2022-10-19T01:03:00.178Z,15.18
2022-10-19T01:05:34.080Z,15.19
2022-10-19T01:08:07.880Z,15.20
2022-10-19T01:10:59.143Z,15.20
2022-10-19T01:14:16.166Z,15.20
2022-10-19T01:16:58.292Z,15.22
2022-10-19T01:20:17.849Z,15.22
2022-10-19T01:23:31.684Z,15.21
2022-10-19T01:26:30.965Z,15.21
2022-10-19T01:29:11.737Z,15.20
2022-10-19T01:32:00.990Z,15.22
2022-10-19T01:34:37.572Z,15.22
2022-10-19T01:37:22.966Z,15.23
2022-10-19T01:40:40.781Z,15.24
2022-10-19T01:43:25.951Z,15.24
2022-10-19T01:46:07.906Z,15.25
2022-10-19T01:48:43.665Z,15.25
2022-10-19T01:51:23.216Z,15.24
2022-10-19T01:53:57.863Z,15.21
2022-10-19T01:56:31.067Z,15.20
2022-10-19T01:59:05.209Z,15.17
2022-10-19T02:01:41.055Z,15.15
2022-10-19T02:04:16.290Z,15.11
2022-10-19T02:06:50.188Z,15.10
2022-10-19T02:09:22.294Z,15.08
2022-10-19T02:12:09.033Z,15.07
2022-10-19T02:14:44.797Z,15.06
2022-10-19T02:17:26.616Z,15.03
2022-10-19T02:19:59.249Z,15.00
2022-10-19T02:22:32.141Z,14.96
2022-10-19T02:25:04.984Z,14.93
2022-10-19T02:27:38.716Z,14.92
2022-10-19T02:30:13.188Z,14.94
2022-10-19T02:32:45.484Z,14.94
2022-10-19T02:35:17.754Z,14.95
2022-10-19T02:37:49.725Z,14.93
2022-10-19T02:40:22.126Z,14.94
2022-10-19T02:43:01.304Z,14.93
2022-10-19T02:45:45.459Z,14.91
2022-10-19T02:48:23.580Z,14.92
2022-10-19T02:50:55.780Z,14.93
2022-10-19T02:53:28.422Z,14.94
2022-10-19T02:56:00.314Z,14.95
2022-10-19T02:58:33.102Z,14.95
2022-10-19T03:01:05.150Z,14.93
2022-10-19T03:03:37.072Z,14.94
2022-10-19T03:06:09.058Z,14.95
2022-10-19T03:08:40.928Z,14.96
2022-10-19T03:11:12.970Z,14.96
2022-10-19T03:13:44.955Z,14.95
2022-10-19T03:16:16.911Z,14.93
2022-10-19T03:18:49.913Z,14.95
2022-10-19T03:21:21.891Z,14.95
2022-10-19T03:23:54.500Z,14.96
2022-10-19T03:26:26.700Z,14.96
2022-10-19T03:28:58.744Z,14.96
2022-10-19T03:31:30.681Z,14.94
2022-10-19T03:34:02.736Z,14.95
2022-10-19T03:36:36.765Z,14.93
2022-10-19T03:39:12.278Z,14.95
2022-10-19T03:41:44.704Z,14.94
2022-10-19T03:44:16.722Z,14.96
2022-10-19T03:46:48.533Z,14.95
2022-10-19T03:49:20.778Z,14.96
2022-10-19T03:51:52.583Z,14.97
2022-10-19T03:54:27.273Z,14.97
2022-10-19T03:56:59.449Z,14.94
2022-10-19T03:59:31.287Z,14.95
2022-10-19T04:02:03.561Z,14.94
2022-10-19T04:04:35.510Z,14.93
2022-10-19T04:07:07.482Z,14.95
2022-10-19T04:09:39.345Z,14.95
2022-10-19T04:12:11.093Z,14.96
2022-10-19T04:14:56.845Z,14.97
2022-10-19T04:17:29.656Z,15.00
2022-10-19T04:20:01.485Z,14.99
2022-10-19T04:22:33.351Z,15.01
2022-10-19T04:25:05.779Z,15.01
2022-10-19T04:27:38.499Z,14.99
2022-10-19T04:30:10.704Z,14.99
2022-10-19T04:32:42.713Z,14.99
2022-10-19T04:35:14.670Z,14.97
2022-10-19T04:37:46.967Z,14.95
2022-10-19T04:40:18.848Z,14.93
2022-10-19T04:42:51.007Z,14.94
2022-10-19T04:45:22.941Z,14.93
2022-10-19T04:47:56.490Z,14.91
2022-10-19T04:50:28.275Z,14.89
2022-10-19T04:53:00.915Z,14.88
2022-10-19T04:55:32.803Z,14.88
2022-10-19T04:58:04.671Z,14.89
2022-10-19T05:00:38.197Z,14.89
2022-10-19T05:03:10.131Z,14.89
2022-10-19T05:05:41.942Z,14.91
2022-10-19T05:08:13.794Z,14.93
2022-10-19T05:10:47.663Z,14.93
2022-10-19T05:13:19.774Z,14.91
2022-10-19T05:15:58.556Z,14.91
2022-10-19T05:18:30.518Z,14.92
2022-10-19T05:21:06.221Z,14.93
2022-10-19T05:23:38.904Z,14.91
2022-10-19T05:26:13.750Z,14.94
2022-10-19T05:28:56.986Z,14.96
2022-10-19T05:31:31.773Z,14.95
2022-10-19T05:34:04.132Z,14.96
2022-10-19T05:36:38.721Z,14.97
2022-10-19T05:39:15.779Z,14.98
2022-10-19T05:41:47.907Z,14.99
2022-10-19T05:44:22.544Z,15.00
2022-10-19T05:46:54.558Z,14.99
2022-10-19T05:49:26.751Z,14.99
2022-10-19T05:51:58.649Z,14.99
2022-10-19T05:54:30.763Z,14.99
2022-10-19T05:57:02.785Z,15.00
2022-10-19T05:59:34.775Z,15.02
2022-10-19T06:02:06.903Z,15.03
2022-10-19T06:04:38.786Z,15.05
2022-10-19T06:07:10.692Z,15.05
2022-10-19T06:09:43.134Z,15.05
2022-10-19T06:12:16.308Z,15.06
2022-10-19T06:14:50.765Z,15.05
2022-10-19T06:17:22.779Z,15.05
2022-10-19T06:19:54.874Z,15.05
2022-10-19T06:22:26.719Z,15.04
2022-10-19T06:24:58.542Z,15.05
2022-10-19T06:27:32.268Z,15.06
2022-10-19T06:30:04.953Z,15.09
2022-10-19T06:32:36.867Z,15.11
2022-10-19T06:35:08.778Z,15.11
2022-10-19T06:37:40.714Z,15.12
2022-10-19T06:40:12.852Z,15.13
2022-10-19T06:42:44.918Z,15.14
2022-10-19T06:45:17.106Z,15.13
2022-10-19T06:47:49.052Z,15.14
2022-10-19T06:50:20.967Z,15.16
2022-10-19T06:52:52.763Z,15.17
2022-10-19T06:55:24.862Z,15.19
2022-10-19T06:57:59.417Z,15.24
2022-10-19T07:00:31.545Z,15.27
2022-10-19T07:03:03.653Z,15.32
2022-10-19T07:05:36.006Z,15.36
2022-10-19T07:08:08.449Z,15.40
2022-10-19T07:10:40.416Z,15.43
2022-10-19T07:13:12.320Z,15.44
2022-10-19T07:15:44.350Z,15.41
2022-10-19T07:18:16.335Z,15.37
2022-10-19T07:20:58.261Z,15.32
2022-10-19T07:23:31.421Z,15.28
2022-10-19T07:26:06.173Z,15.22
2022-10-19T07:28:43.146Z,15.19
2022-10-19T07:31:20.316Z,15.14
2022-10-19T07:34:00.093Z,15.11
2022-10-19T07:36:33.706Z,15.09
2022-10-19T07:39:07.600Z,15.08
2022-10-19T07:41:39.742Z,15.08
2022-10-19T07:44:15.547Z,15.06
2022-10-19T07:46:47.894Z,15.07
2022-10-19T07:49:20.826Z,15.09
2022-10-19T07:51:54.250Z,15.11
2022-10-19T07:54:27.464Z,15.12
2022-10-19T07:56:59.451Z,15.13
2022-10-19T07:59:31.369Z,15.17
2022-10-19T08:02:04.901Z,15.22
2022-10-19T08:07:33.771Z,15.32
2022-10-19T08:10:06.355Z,15.37
2022-10-19T08:12:38.508Z,15.41
2022-10-19T08:15:10.698Z,15.45
2022-10-19T08:17:42.843Z,15.49
2022-10-19T08:20:14.909Z,15.51
2022-10-19T08:22:47.291Z,15.54
2022-10-19T08:25:37.721Z,15.57
2022-10-19T08:28:10.040Z,15.61
2022-10-19T08:30:41.984Z,15.66
2022-10-19T08:33:15.282Z,15.70
2022-10-19T08:35:47.155Z,15.72
2022-10-19T08:38:19.112Z,15.74
2022-10-19T08:40:51.030Z,15.74
2022-10-19T08:43:32.907Z,15.75
2022-10-19T08:46:30.003Z,15.75
2022-10-19T08:49:03.081Z,15.77
2022-10-19T08:51:38.225Z,15.79
2022-10-19T08:54:16.356Z,15.84
2022-10-19T08:56:59.433Z,15.87
2022-10-19T09:00:06.938Z,15.90
2022-10-19T09:02:44.315Z,15.94
2022-10-19T09:05:53.051Z,15.98
2022-10-19T09:08:26.087Z,16.01
2022-10-19T09:10:58.957Z,16.04
2022-10-19T09:14:03.829Z,16.07
2022-10-19T09:16:36.011Z,16.13
2022-10-19T09:19:34.017Z,16.21
2022-10-19T09:22:08.555Z,16.27
2022-10-19T09:24:44.124Z,16.28
2022-10-19T09:27:22.521Z,16.30
2022-10-19T09:29:56.928Z,16.35
2022-10-19T09:32:35.720Z,16.41
2022-10-19T09:35:18.688Z,16.50
2022-10-19T09:37:54.414Z,16.60
2022-10-19T09:40:29.634Z,16.69
2022-10-19T09:43:19.417Z,16.79
2022-10-19T09:45:55.609Z,16.84
2022-10-19T09:48:35.989Z,16.82
2022-10-19T09:51:14.343Z,16.76
2022-10-19T09:53:49.172Z,16.76
2022-10-19T09:56:23.273Z,16.74
2022-10-19T09:58:57.588Z,16.74
2022-10-19T10:01:43.231Z,16.79
2022-10-19T10:04:17.860Z,16.77
2022-10-19T10:06:50.040Z,16.81
2022-10-19T10:09:27.314Z,16.79
2022-10-19T10:12:00.301Z,16.82
2022-10-19T10:14:33.736Z,16.84
2022-10-19T10:17:22.862Z,16.77
2022-10-19T10:20:00.631Z,16.76
2022-10-19T10:22:37.098Z,16.77
2022-10-19T10:25:16.710Z,16.75
2022-10-19T10:28:03.310Z,16.72
2022-10-19T10:30:36.867Z,16.63
2022-10-19T10:33:27.081Z,16.55
2022-10-19T10:36:08.815Z,16.51
2022-10-19T10:38:46.866Z,16.47
2022-10-19T10:41:28.869Z,16.46
2022-10-19T10:44:04.959Z,16.41
2022-10-19T10:46:46.231Z,16.43
2022-10-19T10:49:26.820Z,16.42
2022-10-19T10:52:05.766Z,16.40
2022-10-19T10:54:38.442Z,16.47
2022-10-19T10:57:13.897Z,16.49
2022-10-19T10:59:59.336Z,16.49
2022-10-19T11:02:59.883Z,16.53
2022-10-19T11:05:34.939Z,16.57
2022-10-19T11:08:12.862Z,16.66
2022-10-19T11:10:52.811Z,16.73
2022-10-19T11:13:34.294Z,16.89
2022-10-19T11:16:15.167Z,17.05
2022-10-19T11:19:00.794Z,17.35
2022-10-19T11:22:02.574Z,17.51
2022-10-19T11:25:05.346Z,17.84
2022-10-19T11:27:47.811Z,18.56
2022-10-19T11:30:23.930Z,19.32
2022-10-19T11:33:15.792Z,20.15
2022-10-19T11:35:55.558Z,20.27
2022-10-19T11:38:30.535Z,20.22
2022-10-19T11:41:18.577Z,20.28
2022-10-19T11:44:13.814Z,20.49
2022-10-19T11:46:52.805Z,20.63
2022-10-19T11:49:43.467Z,21.13
2022-10-19T11:52:27.202Z,21.56
2022-10-19T11:55:12.441Z,21.80
2022-10-19T11:57:58.139Z,21.87
2022-10-19T12:00:39.035Z,21.82
2022-10-19T12:03:24.102Z,21.51
2022-10-19T12:06:18.068Z,21.11
2022-10-19T12:09:28.123Z,20.62
2022-10-19T12:12:09.123Z,20.74
2022-10-19T12:14:42.023Z,21.29
2022-10-19T12:17:18.044Z,21.26
2022-10-19T12:19:54.259Z,21.02
2022-10-19T12:22:30.465Z,20.73
2022-10-19T12:25:02.471Z,20.51
2022-10-19T12:27:39.179Z,21.32
2022-10-19T12:30:16.283Z,22.70
2022-10-19T12:33:12.901Z,23.61
2022-10-19T12:35:55.097Z,23.86
2022-10-19T12:38:47.141Z,24.33
2022-10-19T12:41:52.579Z,25.06
2022-10-19T12:44:54.945Z,25.41
2022-10-19T12:47:29.971Z,25.92
2022-10-19T12:50:02.118Z,26.41
2022-10-19T12:52:34.756Z,26.73
2022-10-19T12:55:35.147Z,26.45
2022-10-19T12:58:20.168Z,25.46
2022-10-19T13:01:03.837Z,24.45
2022-10-19T13:03:46.081Z,23.39
2022-10-19T13:06:23.797Z,22.53
2022-10-19T13:09:07.111Z,21.81
2022-10-19T13:12:21.445Z,21.08
2022-10-19T13:15:02.164Z,20.67
2022-10-19T13:17:34.584Z,20.42
2022-10-19T13:20:15.747Z,20.19
2022-10-19T13:23:00.614Z,19.89
2022-10-19T13:25:36.495Z,19.51
2022-10-19T13:28:11.237Z,19.29
2022-10-19T13:30:43.155Z,19.05
2022-10-19T13:33:33.003Z,18.84
2022-10-19T13:36:05.140Z,18.57
2022-10-19T13:38:42.618Z,18.31
2022-10-19T13:41:14.602Z,18.15
2022-10-19T13:43:58.294Z,18.01
2022-10-19T13:46:30.260Z,17.86
2022-10-19T13:49:05.204Z,17.76
2022-10-19T13:52:21.850Z,17.59
2022-10-19T13:55:02.770Z,17.47
2022-10-19T13:58:00.580Z,17.37
2022-10-19T14:00:37.211Z,17.28
2022-10-19T14:03:46.021Z,17.20
2022-10-19T14:06:28.648Z,17.11
2022-10-19T14:09:25.284Z,17.05
2022-10-19T14:12:24.248Z,16.98
2022-10-19T14:14:56.177Z,16.97
2022-10-19T14:17:34.261Z,17.00
2022-10-19T14:20:25.751Z,17.00
2022-10-19T14:22:58.937Z,17.00
2022-10-19T14:25:32.861Z,16.98
2022-10-19T14:28:06.789Z,16.97
2022-10-19T14:30:39.290Z,17.00
2022-10-19T14:33:14.494Z,16.99
2022-10-19T14:35:49.580Z,16.93
2022-10-19T14:38:35.187Z,16.90
2022-10-19T14:41:37.909Z,16.82
2022-10-19T14:44:31.808Z,16.70
2022-10-19T14:47:15.983Z,16.61
2022-10-19T14:49:48.977Z,16.56
2022-10-19T14:55:12.730Z,16.43
2022-10-19T14:57:49.092Z,16.40
2022-10-19T15:00:22.469Z,16.39
2022-10-19T15:03:05.308Z,16.37
2022-10-19T15:05:42.169Z,16.35
2022-10-19T15:08:24.888Z,16.36
2022-10-19T15:10:57.382Z,16.35
2022-10-19T15:13:33.987Z,16.35
2022-10-19T15:16:06.211Z,16.33
2022-10-19T15:18:49.577Z,16.29
2022-10-19T15:21:21.973Z,16.24
2022-10-19T15:23:54.180Z,16.20
2022-10-19T15:26:26.383Z,16.17
2022-10-19T15:29:20.440Z,16.08
2022-10-19T15:31:56.746Z,16.04
2022-10-19T15:34:29.773Z,15.94
2022-10-19T15:37:03.427Z,15.90
2022-10-19T15:39:42.086Z,15.86
2022-10-19T15:42:41.079Z,15.83
2022-10-19T15:45:35.596Z,15.78
2022-10-19T15:48:10.492Z,15.74
2022-10-19T15:50:50.337Z,15.70
2022-10-19T15:53:22.563Z,15.67
2022-10-19T15:55:54.760Z,15.62
2022-10-19T15:58:26.789Z,15.57
2022-10-19T16:00:58.854Z,15.53
2022-10-19T16:03:30.966Z,15.48
2022-10-19T16:06:02.871Z,15.44
2022-10-19T16:08:35.107Z,15.39
2022-10-19T16:11:13.485Z,15.36
2022-10-19T16:13:45.990Z,15.35
2022-10-19T16:16:35.844Z,15.31
2022-10-19T16:19:09.101Z,15.28
2022-10-19T16:21:41.068Z,15.24
2022-10-19T16:24:13.084Z,15.21
2022-10-19T16:26:45.039Z,15.18
2022-10-19T16:29:17.042Z,15.14
2022-10-19T16:31:49.097Z,15.12
2022-10-19T16:34:21.204Z,15.10
2022-10-19T16:36:53.982Z,15.04
2022-10-19T16:39:25.954Z,15.02
2022-10-19T16:41:57.920Z,14.99
2022-10-19T16:44:29.888Z,14.94
2022-10-19T16:47:02.080Z,14.89
2022-10-19T16:49:34.092Z,14.84
2022-10-19T16:52:06.224Z,14.79
2022-10-19T16:54:38.142Z,14.76
2022-10-19T16:57:10.222Z,14.71
2022-10-19T16:59:42.276Z,14.65
2022-10-19T17:02:14.564Z,14.60
2022-10-19T17:04:46.742Z,14.57
2022-10-19T17:07:19.145Z,14.53
2022-10-19T17:09:54.676Z,14.47
2022-10-19T17:12:27.260Z,14.45
2022-10-19T17:15:23.602Z,14.44
2022-10-19T17:17:51.654Z,14.41
2022-10-19T17:20:23.867Z,14.34
2022-10-19T17:22:56.006Z,14.30
2022-10-19T17:25:27.849Z,14.27
2022-10-19T17:27:59.929Z,14.21
2022-10-19T17:30:32.001Z,14.18
2022-10-19T17:33:04.098Z,14.15
2022-10-19T17:35:35.939Z,14.08
2022-10-19T17:38:07.893Z,14.04
2022-10-19T17:40:39.960Z,14.02
2022-10-19T17:43:12.133Z,13.99
2022-10-19T17:48:20.869Z,13.94
2022-10-19T17:51:00.545Z,13.91
2022-10-19T17:53:33.393Z,13.88
2022-10-19T17:56:07.563Z,13.86
2022-10-19T17:58:40.127Z,13.85
2022-10-19T18:01:12.579Z,13.81
2022-10-19T18:03:44.716Z,13.77
2022-10-19T18:06:23.995Z,13.73
2022-10-19T18:08:56.687Z,13.71
2022-10-19T18:11:31.051Z,13.68
2022-10-19T18:14:04.280Z,13.65
2022-10-19T18:16:46.419Z,13.63
2022-10-19T18:19:19.071Z,13.58
2022-10-19T18:21:52.607Z,13.57
2022-10-19T18:24:24.586Z,13.55
2022-10-19T18:26:56.565Z,13.53
2022-10-19T18:29:28.714Z,13.51
2022-10-19T18:32:01.517Z,13.49
2022-10-19T18:34:33.551Z,13.44
2022-10-19T18:37:07.215Z,13.40
2022-10-19T18:39:39.557Z,13.36
2022-10-19T18:42:12.937Z,13.32
2022-10-19T18:44:44.984Z,13.29
2022-10-19T18:47:17.179Z,13.26
2022-10-19T18:49:49.222Z,13.22
2022-10-19T18:52:21.348Z,13.16
2022-10-19T18:54:53.394Z,13.14
2022-10-19T18:57:28.324Z,13.13
2022-10-19T19:00:04.352Z,13.09
2022-10-19T19:02:46.605Z,13.08
2022-10-19T19:05:19.563Z,13.03
2022-10-19T19:07:51.694Z,12.97
2022-10-19T19:10:23.929Z,12.93
2022-10-19T19:12:55.962Z,12.94
2022-10-19T19:15:28.035Z,12.95
2022-10-19T19:17:59.942Z,12.93
2022-10-19T19:20:31.978Z,12.90
2022-10-19T19:23:04.674Z,12.87
2022-10-19T19:25:39.928Z,12.85
2022-10-19T19:28:12.084Z,12.82
2022-10-19T19:30:45.034Z,12.79
2022-10-19T19:33:16.895Z,12.76
2022-10-19T19:35:49.110Z,12.71
2022-10-19T19:38:20.932Z,12.68
2022-10-19T19:40:53.124Z,12.67
2022-10-19T19:43:25.527Z,12.64
2022-10-19T19:46:04.770Z,12.60
2022-10-19T19:48:42.026Z,12.53
2022-10-19T19:51:19.666Z,12.47
2022-10-19T19:53:52.160Z,12.44
2022-10-19T19:56:24.556Z,12.43
2022-10-19T19:58:58.728Z,12.41
2022-10-19T20:01:31.143Z,12.40
2022-10-19T20:06:40.778Z,12.38
2022-10-19T20:09:12.860Z,12.35
2022-10-19T20:11:45.042Z,12.32
2022-10-19T20:14:19.131Z,12.28
2022-10-19T20:16:50.984Z,12.27
2022-10-19T20:19:22.981Z,12.22
2022-10-19T20:21:56.311Z,12.18
2022-10-19T20:24:28.319Z,12.14
2022-10-19T20:27:00.361Z,12.08
2022-10-19T20:29:32.236Z,12.06
2022-10-19T20:32:04.238Z,12.03
2022-10-19T20:34:36.663Z,12.01
2022-10-19T20:37:09.300Z,12.00
2022-10-19T20:39:41.220Z,11.97
2022-10-19T20:42:14.147Z,11.97
2022-10-19T20:44:46.219Z,11.92
2022-10-19T20:47:18.085Z,11.90
2022-10-19T20:49:49.987Z,11.90
2022-10-19T20:52:22.096Z,11.89
2022-10-19T20:54:54.122Z,11.89
2022-10-19T20:57:26.083Z,11.89
2022-10-19T20:59:57.948Z,11.86
2022-10-19T21:02:30.182Z,11.85
2022-10-19T21:05:02.436Z,11.82
2022-10-19T21:07:34.346Z,11.77
2022-10-19T21:10:06.539Z,11.72
2022-10-19T21:12:38.647Z,11.68
2022-10-19T21:15:10.918Z,11.64
2022-10-19T21:17:43.098Z,11.61
2022-10-19T21:20:15.015Z,11.58
2022-10-19T21:22:46.860Z,11.58
2022-10-19T21:25:18.819Z,11.58
2022-10-19T21:27:51.943Z,11.55
2022-10-19T21:30:23.993Z,11.56
2022-10-19T21:32:55.960Z,11.57
2022-10-19T21:35:27.948Z,11.57
2022-10-19T21:38:00.108Z,11.56
2022-10-19T21:40:35.416Z,11.57
2022-10-19T21:43:11.065Z,11.54
2022-10-19T21:45:43.084Z,11.54
2022-10-19T21:48:15.091Z,11.53
2022-10-19T21:50:47.482Z,11.51
2022-10-19T21:53:20.344Z,11.49
2022-10-19T21:55:53.485Z,11.45
2022-10-19T21:58:25.550Z,11.41
2022-10-19T22:01:04.846Z,11.37
2022-10-19T22:03:37.085Z,11.35
2022-10-19T22:06:09.605Z,11.32
2022-10-19T22:08:47.604Z,11.29
2022-10-19T22:11:20.066Z,11.24
2022-10-19T22:13:56.245Z,11.21
2022-10-19T22:16:29.416Z,11.18
2022-10-19T22:19:01.328Z,11.15
2022-10-19T22:21:34.341Z,11.14
2022-10-19T22:24:09.200Z,11.13
2022-10-19T22:26:50.588Z,11.14
2022-10-19T22:29:22.442Z,11.14
2022-10-19T22:31:54.324Z,11.13
2022-10-19T22:34:26.306Z,11.10
2022-10-19T22:36:59.010Z,11.11
2022-10-19T22:39:31.226Z,11.08
2022-10-19T22:42:03.182Z,11.06
2022-10-19T22:44:35.317Z,11.05
2022-10-19T22:47:07.145Z,11.04
2022-10-19T22:49:39.050Z,11.02
2022-10-19T22:52:10.920Z,11.03
2022-10-19T22:54:43.246Z,10.98
2022-10-19T22:57:15.186Z,10.93
2022-10-19T22:59:47.213Z,10.86
2022-10-19T23:02:19.147Z,10.82
2022-10-19T23:04:51.042Z,10.76
2022-10-19T23:07:22.888Z,10.70
2022-10-19T23:09:54.759Z,10.65
2022-10-19T23:12:26.567Z,10.61
2022-10-19T23:14:58.768Z,10.61
2022-10-19T23:17:30.570Z,10.62
2022-10-19T23:20:02.601Z,10.63
2022-10-19T23:22:34.434Z,10.62
2022-10-19T23:25:06.907Z,10.61
2022-10-19T23:27:39.182Z,10.58
2022-10-19T23:30:11.443Z,10.55
2022-10-19T23:32:43.258Z,10.51
2022-10-19T23:35:15.185Z,10.50
2022-10-19T23:37:47.140Z,10.48
2022-10-19T23:40:19.027Z,10.47
2022-10-19T23:42:50.897Z,10.43
2022-10-19T23:45:22.745Z,10.41
2022-10-19T23:47:54.657Z,10.38
2022-10-19T23:50:26.467Z,10.38
2022-10-19T23:52:58.387Z,10.38
2022-10-19T23:55:30.252Z,10.40
2022-10-19T23:58:02.440Z,10.40
